Time;durP1;ratioP1;P1;durP2;ratioP2;P2;SDS_P1;SDS_P2;PMS_P1;PMS_P2;Temp;Humidity;BMP_temperature;BMP_pressure;BME280_temperature;BME280_humidity;BME280_pressure;Samples;Min_cycle;Max_cycle;Signal;HPM_P1;HPM_P2
2022/08/23 00:02:03;;;;;;;4.60;2.13;;;;;;;22.26;41.78;100228.16;5104128;28;20145;-72
2022/08/23 00:04:40;;;;;;;1.92;1.70;;;;;;;22.42;41.78;100251.78;5114391;27;20494;-72
2022/08/23 00:07:26;;;;;;;5.30;2.03;;;;;;;22.39;41.71;100252.09;5103595;28;20054;-70
2022/08/23 00:09:55;;;;;;;3.50;2.03;;;;;;;22.37;41.96;100251.38;5105590;28;20046;-70
2022/08/23 00:12:24;;;;;;;2.63;1.90;;;;;;;22.30;42.17;100253.00;5104358;28;20147;-70
2022/08/23 00:14:52;;;;;;;5.20;2.10;;;;;;;22.28;41.99;100263.09;5106266;28;20079;-69
2022/08/23 00:17:19;;;;;;;13.82;2.75;;;;;;;22.12;42.45;100241.31;5104740;28;20036;-69
2022/08/23 00:20:07;;;;;;;6.43;2.45;;;;;;;22.25;42.40;100252.59;5103931;28;20040;-70
2022/08/23 00:22:35;;;;;;;4.32;1.83;;;;;;;22.25;42.31;100252.59;5103204;28;20068;-69
2022/08/23 00:25:03;;;;;;;3.88;1.70;;;;;;;22.22;42.22;100244.78;5106402;28;20078;-69
2022/08/23 00:27:30;;;;;;;3.65;1.70;;;;;;;22.14;42.66;100242.84;5087776;28;20481;-71
2022/08/23 00:29:57;;;;;;;2.88;1.98;;;;;;;22.13;42.71;100240.31;5107129;28;21342;-70
2022/08/23 00:32:26;;;;;;;4.00;1.95;;;;;;;21.93;42.94;100224.19;5103423;28;20066;-72
2022/08/23 00:34:53;;;;;;;2.28;1.80;;;;;;;22.02;43.09;100241.38;5105849;28;20051;-70
2022/08/23 00:37:21;;;;;;;4.57;1.90;;;;;;;21.99;43.03;100236.22;5107194;28;20075;-70
2022/08/23 00:39:48;;;;;;;3.60;2.20;;;;;;;21.91;43.36;100234.25;5104526;28;20068;-72
2022/08/23 00:48:07;;;;;;;4.20;2.03;;;;;;;21.75;44.00;100239.44;5105079;28;20147;-70
2022/08/23 00:50:42;;;;;;;4.43;1.88;;;;;;;21.67;44.15;100233.94;5103662;28;20259;-69
2022/08/23 00:53:13;;;;;;;3.20;2.00;;;;;;;21.61;44.19;100232.69;5101565;28;20460;-71
2022/08/23 00:55:43;;;;;;;3.08;2.28;;;;;;;21.48;44.76;100226.75;5104871;28;20127;-71
2022/08/23 00:58:11;;;;;;;6.72;2.28;;;;;;;21.49;44.94;100239.25;5105535;28;20131;-71
2022/08/23 01:00:40;;;;;;;4.80;1.95;;;;;;;21.52;44.76;100238.94;5099343;27;20052;-71
2022/08/23 01:03:11;;;;;;;5.03;2.10;;;;;;;21.48;44.71;100242.94;5108305;27;20142;-70
2022/08/23 01:06:05;;;;;;;4.70;2.05;;;;;;;21.44;44.93;100246.06;5108990;28;20610;-71
2022/08/23 01:08:33;;;;;;;3.83;1.70;;;;;;;21.41;44.99;100241.78;5109594;27;20057;-70
2022/08/23 01:11:20;;;;;;;4.07;2.00;;;;;;;21.42;44.91;100248.88;5107190;28;20067;-70
2022/08/23 01:14:11;;;;;;;3.05;1.85;;;;;;;21.40;44.81;100245.50;5108682;27;20047;-69
2022/08/23 01:16:45;;;;;;;4.40;1.98;;;;;;;21.40;45.17;100255.44;5108503;28;20082;-69
2022/08/23 01:19:34;;;;;;;3.75;2.10;;;;;;;21.38;45.29;100243.94;5109586;27;20071;-70
2022/08/23 01:22:06;;;;;;;3.50;2.03;;;;;;;21.26;45.25;100227.94;5102464;28;20495;-69
2022/08/23 01:24:33;;;;;;;4.32;2.17;;;;;;;21.15;45.47;100219.13;5106816;28;20063;-70
2022/08/23 01:27:20;;;;;;;4.53;1.98;;;;;;;21.21;45.63;100246.38;5095369;28;20090;-70
2022/08/23 01:29:47;;;;;;;3.42;1.88;;;;;;;21.13;46.15;100246.22;5101085;28;20109;-71
2022/08/23 01:32:13;;;;;;;3.92;2.20;;;;;;;21.09;46.33;100241.28;5103909;28;20126;-69
2022/08/23 01:34:40;;;;;;;5.40;1.95;;;;;;;21.05;46.29;100245.22;5091174;28;20059;-70
2022/08/23 01:37:11;;;;;;;2.95;1.90;;;;;;;21.04;46.49;100239.00;5106817;27;20643;-70
2022/08/23 01:39:38;;;;;;;3.17;1.95;;;;;;;20.94;46.42;100232.75;5101869;28;20469;-70
2022/08/23 01:42:06;;;;;;;5.13;2.22;;;;;;;20.97;46.80;100248.63;5108606;28;20163;-70
2022/08/23 01:44:34;;;;;;;2.33;1.90;;;;;;;20.92;47.15;100256.28;5092687;28;20044;-71
2022/08/23 01:47:00;;;;;;;3.03;1.90;;;;;;;20.88;47.34;100244.94;5101647;28;20123;-70
2022/08/23 01:49:27;;;;;;;2.65;1.90;;;;;;;20.90;47.04;100245.66;5100574;28;20612;-73
2022/08/23 01:51:54;;;;;;;4.35;2.20;;;;;;;20.82;47.38;100239.28;5105295;28;20626;-72
2022/08/23 01:54:21;;;;;;;4.70;2.25;;;;;;;20.81;47.47;100237.56;5104478;28;20035;-71
2022/08/23 01:56:48;;;;;;;3.20;2.10;;;;;;;20.75;47.57;100238.16;5108017;28;20427;-71
2022/08/23 01:59:14;;;;;;;3.00;2.00;;;;;;;20.72;47.74;100244.66;5103927;28;20101;-70
2022/08/23 02:01:41;;;;;;;6.45;2.30;;;;;;;20.61;48.01;100232.19;5113424;27;20144;-71
2022/08/23 02:04:08;;;;;;;4.00;2.20;;;;;;;20.59;47.89;100239.56;5106430;28;20048;-69
2022/08/23 02:06:34;;;;;;;3.67;2.13;;;;;;;20.55;48.06;100240.81;5105631;28;20435;-71
2022/08/23 02:09:03;;;;;;;3.58;2.30;;;;;;;20.49;48.58;100238.66;5107475;28;20069;-71
2022/08/23 02:11:33;;;;;;;2.55;2.10;;;;;;;20.36;48.62;100221.94;5107970;28;20160;-70
2022/08/23 02:14:01;;;;;;;;;;;;;;;20.44;49.02;100240.09;5107105;28;20484;-70
2022/08/23 02:16:35;;;;;;;4.68;2.30;;;;;;;20.26;48.72;100219.22;5110010;27;20704;-69
2022/08/23 02:19:07;;;;;;;4.68;2.20;;;;;;;20.35;49.20;100241.72;5105329;27;20526;-69
2022/08/23 02:21:35;;;;;;;4.75;2.25;;;;;;;20.31;49.45;100240.28;5100684;27;20567;-69
2022/08/23 02:24:06;;;;;;;5.38;2.58;;;;;;;20.27;49.54;100250.50;5106889;28;20552;-69
2022/08/23 02:26:39;;;;;;;5.07;2.45;;;;;;;20.24;49.63;100249.91;5104921;28;20067;-68
2022/08/23 02:29:16;;;;;;;4.03;2.22;;;;;;;20.08;49.91;100233.44;5102470;27;20071;-69
2022/08/23 02:31:46;;;;;;;5.43;2.22;;;;;;;20.11;50.12;100255.53;5099483;27;20083;-70
2022/08/23 02:34:14;;;;;;;6.50;2.60;;;;;;;20.04;49.84;100250.84;5100109;27;20067;-70
2022/08/23 02:36:58;;;;;;;3.42;2.50;;;;;;;19.93;50.22;100246.41;5106464;28;20054;-72
2022/08/23 02:39:25;;;;;;;4.55;2.50;;;;;;;19.86;50.66;100256.84;5107462;28;20104;-71
2022/08/23 02:41:52;;;;;;;2.40;2.15;;;;;;;19.82;50.79;100259.94;5103165;28;20510;-71
2022/08/23 02:44:19;;;;;;;5.43;2.38;;;;;;;19.81;50.75;100259.09;5105131;27;20095;-72
2022/08/23 02:46:46;;;;;;;4.95;2.55;;;;;;;19.69;50.85;100244.03;5098639;28;20044;-70
2022/08/23 02:49:14;;;;;;;9.98;2.70;;;;;;;19.79;50.95;100265.59;5106356;27;20048;-71
2022/08/23 02:51:42;;;;;;;4.68;2.63;;;;;;;19.77;50.48;100263.03;5103764;28;20109;-72
2022/08/23 02:54:09;;;;;;;4.22;2.42;;;;;;;19.69;50.59;100252.09;5104543;28;20529;-70
2022/08/23 02:56:35;;;;;;;3.10;2.28;;;;;;;19.50;50.85;100238.56;5103911;27;20036;-68
2022/08/23 02:59:04;;;;;;;5.20;2.20;;;;;;;19.54;51.39;100262.31;5101859;28;20044;-70
2022/08/23 03:01:35;;;;;;;5.90;2.80;;;;;;;19.48;51.42;100262.84;5103527;27;20047;-69
2022/08/23 03:04:03;;;;;;;5.22;2.47;;;;;;;19.46;51.97;100269.31;5110743;27;20058;-71
2022/08/23 03:06:30;;;;;;;4.80;2.70;;;;;;;19.27;51.77;100238.69;5113211;27;20043;-71
2022/08/23 03:08:57;;;;;;;4.22;2.55;;;;;;;19.38;51.77;100272.66;5108434;28;20739;-71
2022/08/23 03:11:24;;;;;;;6.03;2.70;;;;;;;19.33;51.91;100264.16;5110963;27;20069;-72
2022/08/23 03:13:55;;;;;;;8.27;2.58;;;;;;;19.30;52.23;100272.47;5109156;27;20048;-71
2022/08/23 03:16:23;;;;;;;6.25;2.60;;;;;;;19.27;52.35;100267.34;5109045;27;20061;-71
2022/08/23 03:18:50;;;;;;;5.55;2.58;;;;;;;19.21;52.57;100268.72;5108738;27;20108;-71
2022/08/23 03:21:17;;;;;;;5.10;2.40;;;;;;;19.15;52.50;100260.34;5107593;27;20084;-71
2022/08/23 03:23:44;;;;;;;4.05;2.28;;;;;;;19.02;52.65;100248.94;5107141;28;20047;-70
2022/08/23 03:26:13;;;;;;;2.75;2.22;;;;;;;19.16;52.83;100272.78;5103530;28;20043;-71
2022/08/23 03:28:42;;;;;;;3.70;2.40;;;;;;;19.18;52.73;100273.53;5109850;27;20060;-71
2022/08/23 03:31:10;;;;;;;3.72;2.00;;;;;;;19.19;52.99;100277.91;5107159;27;20062;-71
2022/08/23 03:33:37;;;;;;;4.00;2.40;;;;;;;19.20;52.78;100276.94;5104110;28;20051;-70
2022/08/23 03:36:06;;;;;;;4.65;2.20;;;;;;;19.10;52.99;100257.19;5104651;27;20082;-71
2022/08/23 03:38:33;;;;;;;3.05;2.20;;;;;;;19.15;52.60;100255.84;5106676;28;20079;-69
2022/08/23 03:41:00;;;;;;;5.43;2.38;;;;;;;19.32;52.46;100275.03;5107090;28;20071;-72
2022/08/23 03:43:27;;;;;;;2.92;2.30;;;;;;;19.27;52.37;100278.09;5106600;27;20427;-72
2022/08/23 03:45:53;;;;;;;4.05;2.40;;;;;;;19.25;52.46;100277.38;5105577;28;20048;-69
2022/08/23 03:48:20;;;;;;;5.20;2.50;;;;;;;19.09;52.56;100259.03;5105938;28;20051;-72
2022/08/23 03:50:47;;;;;;;5.07;2.42;;;;;;;19.13;52.82;100278.41;5105435;28;20097;-72
2022/08/23 03:53:13;;;;;;;3.80;2.03;;;;;;;19.11;52.75;100280.38;5105475;28;20499;-71
2022/08/23 03:55:41;;;;;;;4.95;2.70;;;;;;;19.06;53.32;100286.13;5108997;27;20101;-72
2022/08/23 03:58:09;;;;;;;3.88;2.58;;;;;;;19.03;53.54;100286.41;5105326;28;20040;-71
2022/08/23 04:00:36;;;;;;;4.82;2.30;;;;;;;18.96;53.99;100295.06;5102991;27;20073;-73
2022/08/23 04:03:03;;;;;;;5.72;2.72;;;;;;;18.88;54.10;100293.91;5099332;28;20103;-72
2022/08/23 04:05:30;;;;;;;8.77;2.58;;;;;;;18.86;54.10;100292.31;5106130;27;20067;-72
2022/08/23 04:07:56;;;;;;;6.35;2.85;;;;;;;18.85;54.38;100299.50;5106278;28;20109;-70
2022/08/23 04:10:23;;;;;;;8.43;3.15;;;;;;;18.81;54.66;100292.69;5107242;28;20051;-72
2022/08/23 04:12:52;;;;;;;3.10;2.63;;;;;;;18.84;54.36;100295.13;5107040;28;20082;-70
2022/08/23 04:15:19;;;;;;;10.07;2.38;;;;;;;18.80;54.50;100290.13;5107027;28;20447;-71
2022/08/23 04:17:46;;;;;;;5.47;2.47;;;;;;;18.90;54.64;100305.31;5100492;28;20043;-72
2022/08/23 04:20:12;;;;;;;6.65;2.67;;;;;;;18.92;54.44;100315.94;5101282;28;20071;-71
2022/08/23 04:22:39;;;;;;;5.35;3.00;;;;;;;18.87;54.32;100310.97;5112064;28;20077;-73
2022/08/23 04:25:06;;;;;;;3.35;2.42;;;;;;;18.78;54.86;100292.09;5107612;28;20050;-72
2022/08/23 04:27:53;;;;;;;4.43;2.35;;;;;;;18.83;54.45;100314.03;5104934;28;20051;-71
2022/08/23 04:30:20;;;;;;;4.82;2.60;;;;;;;18.73;54.80;100311.22;5104652;28;20391;-69
2022/08/23 04:32:47;;;;;;;4.63;2.50;;;;;;;18.57;54.94;100292.00;5089518;28;20104;-70
2022/08/23 04:35:14;;;;;;;5.07;2.63;;;;;;;18.62;55.48;100330.03;5099293;28;20051;-69
2022/08/23 04:37:41;;;;;;;4.10;2.50;;;;;;;18.54;55.93;100314.56;5109699;27;20112;-75
2022/08/23 04:42:54;;;;;;;5.55;2.80;;;;;;;18.48;56.30;100325.78;5112674;27;20040;-73
2022/08/23 04:45:21;;;;;;;5.78;2.70;;;;;;;18.47;56.25;100325.88;5107149;28;20043;-71
2022/08/23 04:47:48;;;;;;;5.63;2.83;;;;;;;18.46;56.40;100332.22;5102846;28;20090;-72
2022/08/23 04:50:19;;;;;;;6.70;3.22;;;;;;;18.42;56.76;100331.63;5105697;28;20050;-72
2022/08/23 04:52:46;;;;;;;4.45;2.88;;;;;;;18.29;56.93;100314.81;5107001;27;20044;-72
2022/08/23 04:55:13;;;;;;;3.70;2.50;;;;;;;18.44;57.10;100332.34;5104779;28;20521;-73
2022/08/23 04:57:41;;;;;;;5.30;2.47;;;;;;;18.45;57.00;100336.72;5102038;28;20219;-71
2022/08/23 05:00:13;;;;;;;5.25;2.80;;;;;;;18.43;57.12;100327.97;5104011;27;20123;-71
2022/08/23 05:02:39;;;;;;;4.53;2.58;;;;;;;18.31;57.21;100317.38;5083475;28;20456;-70
2022/08/23 05:05:07;;;;;;;7.13;2.30;;;;;;;18.38;57.39;100330.19;5087815;28;20101;-72
2022/08/23 05:07:36;;;;;;;3.03;2.70;;;;;;;18.28;57.59;100309.56;5105718;28;20440;-70
2022/08/23 05:10:11;;;;;;;6.40;2.50;;;;;;;18.43;57.71;100343.19;5104473;28;20047;-71
2022/08/23 05:12:39;;;;;;;5.63;2.78;;;;;;;18.42;57.32;100338.81;5109689;27;20051;-70
2022/08/23 05:15:08;;;;;;;5.63;2.72;;;;;;;18.44;57.57;100351.13;5106656;27;20032;-71
2022/08/23 05:17:35;;;;;;;5.82;2.63;;;;;;;18.45;57.75;100352.81;5109358;28;20036;-71
2022/08/23 05:20:04;;;;;;;5.72;2.65;;;;;;;18.45;58.01;100357.34;5106391;28;20081;-71
2022/08/23 05:22:36;;;;;;;4.47;2.90;;;;;;;18.48;58.05;100354.41;5110886;27;20075;-69
2022/08/23 05:25:03;;;;;;;4.95;3.00;;;;;;;18.48;58.19;100362.47;5096514;28;20502;-70
2022/08/23 05:27:29;;;;;;;4.70;3.00;;;;;;;18.46;58.49;100362.56;5101871;28;20147;-69
2022/08/23 05:29:56;;;;;;;3.35;2.72;;;;;;;18.50;58.40;100360.50;5103166;28;20059;-70
2022/08/23 05:32:23;;;;;;;5.00;2.70;;;;;;;18.51;58.59;100362.22;5103057;28;20082;-70
2022/08/23 05:34:49;;;;;;;5.65;2.88;;;;;;;18.46;58.36;100349.16;5103020;28;20048;-71
2022/08/23 05:37:16;;;;;;;8.48;3.15;;;;;;;18.53;57.77;100347.72;5109289;27;20074;-69
2022/08/23 05:39:43;;;;;;;7.82;3.25;;;;;;;18.76;57.67;100370.00;5108806;28;20079;-72
2022/08/23 05:42:12;;;;;;;5.03;3.20;;;;;;;18.82;57.69;100382.06;5109566;28;20075;-69
2022/08/23 05:44:39;;;;;;;3.03;2.70;;;;;;;18.82;57.55;100374.03;5099611;28;20044;-70
2022/08/23 05:47:07;;;;;;;5.82;3.20;;;;;;;18.98;57.73;100390.56;5090422;28;20035;-70
2022/08/23 05:49:37;;;;;;;7.38;3.25;;;;;;;18.90;57.29;100371.56;5116468;28;20040;-70
2022/08/23 05:52:07;;;;;;;5.15;2.92;;;;;;;18.90;57.79;100372.41;5107532;27;20074;-71
2022/08/23 05:54:34;;;;;;;9.48;3.50;;;;;;;19.09;57.71;100393.22;5108720;28;20074;-72
2022/08/23 05:57:01;;;;;;;7.63;3.30;;;;;;;19.15;57.63;100394.56;5109249;27;20075;-70
2022/08/23 05:59:30;;;;;;;3.53;2.57;;;;;;;19.08;57.28;100372.72;5098646;28;20052;-72
2022/08/23 06:01:57;;;;;;;5.05;3.03;;;;;;;19.23;57.27;100392.06;5095730;27;20819;-71
2022/08/23 06:04:24;;;;;;;6.78;2.72;;;;;;;19.44;57.07;100405.56;5109100;28;20086;-70
2022/08/23 06:06:50;;;;;;;4.65;2.90;;;;;;;19.53;56.92;100408.34;5110620;27;20143;-70
2022/08/23 06:09:17;;;;;;;11.18;3.58;;;;;;;19.64;56.18;100396.72;5107413;28;21765;-71
2022/08/23 06:11:45;;;;;;;6.15;3.20;;;;;;;19.76;55.85;100402.88;5103642;28;20074;-70
2022/08/23 06:14:13;;;;;;;7.60;3.50;;;;;;;19.84;55.11;100403.91;5108991;27;20071;-71
2022/08/23 06:16:47;;;;;;;7.90;3.20;;;;;;;19.98;54.96;100401.91;5107983;27;20064;-71
2022/08/23 06:19:16;;;;;;;7.07;3.53;;;;;;;20.08;54.65;100400.13;5113311;27;20067;-71
2022/08/23 06:21:45;;;;;;;7.85;3.38;;;;;;;20.15;53.93;100406.66;5108029;27;20096;-69
2022/08/23 06:24:12;;;;;;;6.63;3.40;;;;;;;20.23;53.44;100407.72;5104841;28;20091;-72
2022/08/23 06:26:43;;;;;;;8.55;3.17;;;;;;;20.29;53.26;100398.28;5105383;28;20040;-74
2022/08/23 06:29:18;;;;;;;6.82;3.60;;;;;;;20.50;53.03;100414.38;5105226;27;20046;-71
2022/08/23 06:31:48;;;;;;;7.68;3.70;;;;;;;20.67;52.58;100403.81;5100057;28;20043;-72
2022/08/23 06:34:22;;;;;;;5.53;3.08;;;;;;;20.90;51.87;100409.84;5099095;28;20056;-70
2022/08/23 06:36:55;;;;;;;19.83;4.38;;;;;;;21.21;50.87;100397.19;5108131;27;20105;-70
2022/08/23 06:39:26;;;;;;;9.40;3.92;;;;;;;21.54;49.98;100408.56;5111323;27;20524;-69
2022/08/23 06:41:59;;;;;;;4.43;3.17;;;;;;;21.80;49.46;100406.13;5107580;28;20518;-69
2022/08/23 06:44:27;;;;;;;5.07;2.90;;;;;;;22.03;49.65;100400.31;5104913;27;20043;-70
2022/08/23 06:46:55;;;;;;;7.90;2.92;;;;;;;22.22;48.19;100385.06;5108214;27;20123;-70
2022/08/23 06:49:23;;;;;;;5.35;2.92;;;;;;;22.51;47.98;100393.06;5107784;28;20150;-70
2022/08/23 06:51:55;;;;;;;4.70;3.03;;;;;;;22.95;46.19;100410.34;5108537;27;20479;-72
2022/08/23 06:54:26;;;;;;;8.30;3.17;;;;;;;23.24;45.35;100416.41;5107335;28;20055;-72
2022/08/23 06:56:54;;;;;;;5.97;3.25;;;;;;;23.44;44.39;100409.88;5101979;28;20081;-72
2022/08/23 06:59:21;;;;;;;7.85;3.03;;;;;;;23.56;43.70;100390.75;5100561;28;20096;-72
2022/08/23 07:01:52;;;;;;;6.68;3.13;;;;;;;23.84;44.12;100407.69;5108493;27;20043;-71
2022/08/23 07:04:29;;;;;;;8.02;2.95;;;;;;;24.13;43.41;100414.50;5102560;28;20039;-73
2022/08/23 07:06:57;;;;;;;17.10;4.15;;;;;;;24.21;42.05;100396.66;5102946;27;20159;-71
2022/08/23 07:09:25;;;;;;;5.85;2.90;;;;;;;24.38;41.87;100407.44;5104231;28;20079;-70
2022/08/23 07:11:51;;;;;;;11.02;4.00;;;;;;;24.46;41.61;100404.75;5104757;28;20071;-72
2022/08/23 07:14:20;;;;;;;12.35;3.30;;;;;;;24.69;41.31;100407.78;5107048;28;20086;-72
2022/08/23 07:16:49;;;;;;;4.65;2.92;;;;;;;24.84;40.85;100405.28;5105662;27;20079;-72
2022/08/23 07:19:19;;;;;;;6.70;3.42;;;;;;;24.82;41.14;100388.34;5109437;27;20048;-72
2022/08/23 07:21:47;;;;;;;6.78;2.92;;;;;;;24.83;42.74;100407.16;5107422;27;20043;-72
2022/08/23 07:24:16;;;;;;;5.72;2.72;;;;;;;24.82;42.11;100396.47;5107641;28;20051;-72
2022/08/23 07:26:44;;;;;;;8.77;2.78;;;;;;;;;;5104876;28;20146;-71
2022/08/23 07:29:12;;;;;;;6.13;3.13;;;;;;;25.04;40.36;100395.88;5106624;28;20055;-73
2022/08/23 07:31:41;;;;;;;9.45;2.85;;;;;;;25.37;40.19;100418.50;5103298;27;20036;-70
2022/08/23 07:34:09;;;;;;;5.15;3.05;;;;;;;25.45;38.97;100409.53;5107638;28;20062;-70
2022/08/23 07:36:37;;;;;;;7.22;2.65;;;;;;;25.33;40.17;100400.88;5109771;27;20035;-71
2022/08/23 07:39:06;;;;;;;6.50;3.08;;;;;;;25.40;39.46;100415.44;5102872;28;20510;-71
2022/08/23 07:41:34;;;;;;;5.85;2.97;;;;;;;25.48;39.39;100418.19;5107935;28;20519;-73
2022/08/23 07:44:03;;;;;;;7.82;2.97;;;;;;;25.62;39.58;100418.56;5106363;27;20473;-71
2022/08/23 07:46:31;;;;;;;5.53;2.80;;;;;;;25.82;39.72;100415.34;5108546;27;20506;-76
2022/08/23 07:49:00;;;;;;;8.13;2.60;;;;;;;26.05;38.64;100414.66;5107509;28;20066;-72
2022/08/23 07:51:29;;;;;;;5.28;2.42;;;;;;;26.17;38.31;100414.13;5110304;27;20108;-71
2022/08/23 07:53:56;;;;;;;6.78;2.83;;;;;;;26.17;37.73;100416.84;5110831;27;20476;-76
2022/08/23 07:56:23;;;;;;;5.57;2.97;;;;;;;26.31;38.78;100418.03;5106296;28;20092;-74
2022/08/23 07:58:50;;;;;;;8.27;3.13;;;;;;;26.53;37.76;100420.03;5106624;28;20093;-74
2022/08/23 08:01:22;;;;;;;6.32;2.85;;;;;;;26.43;38.18;100415.81;5108088;27;20524;-73
2022/08/23 08:03:53;;;;;;;6.50;2.90;;;;;;;26.53;37.99;100416.47;5107440;27;20054;-72
2022/08/23 08:06:29;;;;;;;5.28;2.60;;;;;;;26.64;37.30;100412.50;5105872;28;20105;-70
2022/08/23 08:08:57;;;;;;;6.68;3.10;;;;;;;26.78;36.50;100425.34;5106570;28;20069;-71
2022/08/23 08:11:27;;;;;;;9.95;2.90;;;;;;;26.78;37.08;100428.91;5101572;28;20484;-72
2022/08/23 08:14:03;;;;;;;4.18;2.30;;;;;;;26.90;36.63;100427.53;5107470;28;20039;-70
2022/08/23 08:16:35;;;;;;;5.32;2.63;;;;;;;26.92;36.88;100415.66;5112117;28;20048;-70
2022/08/23 08:19:05;;;;;;;4.63;2.42;;;;;;;26.94;36.47;100419.88;5105734;28;20120;-71
2022/08/23 08:21:34;;;;;;;8.48;2.63;;;;;;;26.96;35.80;100430.59;5105838;28;20127;-71
2022/08/23 08:24:01;;;;;;;7.43;2.70;;;;;;;26.99;35.32;100431.09;5108873;28;20112;-73
2022/08/23 08:26:28;;;;;;;6.50;2.40;;;;;;;27.07;35.34;100424.78;5105974;28;20116;-73
2022/08/23 08:28:55;;;;;;;7.88;2.53;;;;;;;27.14;35.33;100426.59;5106740;28;20084;-73
2022/08/23 08:31:23;;;;;;;4.55;2.63;;;;;;;26.89;36.27;100423.13;5112563;28;20047;-69
2022/08/23 08:33:50;;;;;;;7.18;2.72;;;;;;;26.89;36.32;100436.72;5122849;28;20055;-70
2022/08/23 08:36:42;;;;;;;4.78;2.72;;;;;;;26.99;36.08;100432.94;5106373;28;20638;-73
2022/08/23 08:39:17;;;;;;;5.07;2.40;;;;;;;26.99;36.13;100433.81;5102640;28;20059;-72
2022/08/23 08:42:06;;;;;;;5.53;2.60;;;;;;;27.16;35.85;100442.72;5104460;28;20667;-71
2022/08/23 08:44:46;;;;;;;5.43;2.40;;;;;;;27.25;35.80;100441.63;5096460;28;20056;-69
2022/08/23 08:47:38;;;;;;;10.05;3.08;;;;;;;27.57;34.95;100427.88;5099542;28;20044;-71
2022/08/23 08:50:04;;;;;;;11.90;2.42;;;;;;;27.93;34.58;100449.03;5110020;28;20117;-73
2022/08/23 08:52:48;;;;;;;6.47;2.60;;;;;;;27.99;34.37;100428.41;5104588;28;20548;-71
2022/08/23 08:55:25;;;;;;;3.40;2.40;;;;;;;28.28;34.42;100442.94;5102170;28;20044;-71
2022/08/23 08:57:54;;;;;;;6.55;2.42;;;;;;;28.58;33.13;100426.63;5100605;28;20047;-71
2022/08/23 09:00:24;;;;;;;3.33;2.42;;;;;;;28.72;32.98;100444.00;5110159;28;20060;-73
2022/08/23 09:02:51;;;;;;;3.45;2.42;;;;;;;28.45;33.37;100440.06;5107752;28;20104;-74
2022/08/23 09:05:25;;;;;;;5.65;2.63;;;;;;;27.64;35.21;100436.16;5100821;28;20036;-72
2022/08/23 09:08:16;;;;;;;7.25;2.65;;;;;;;27.34;35.68;100450.63;5100320;28;20048;-70
2022/08/23 09:11:21;;;;;;;3.70;2.53;;;;;;;27.31;35.56;100449.09;5108676;28;20097;-72
2022/08/23 09:13:59;;;;;;;6.63;2.85;;;;;;;27.28;35.17;100424.97;5107886;28;20060;-73
2022/08/23 09:17:01;;;;;;;4.15;2.65;;;;;;;27.58;34.58;100443.16;5103836;28;20043;-72
2022/08/23 09:19:30;;;;;;;4.35;2.53;;;;;;;27.49;35.34;100443.38;5102276;28;20490;-74
2022/08/23 09:22:01;;;;;;;5.10;2.25;;;;;;;27.34;35.79;100440.59;5113109;27;20048;-72
2022/08/23 09:24:28;;;;;;;6.22;2.70;;;;;;;27.32;35.77;100442.63;5102928;28;20052;-73
2022/08/23 09:26:58;;;;;;;;;;;;;;;27.28;35.35;100438.56;5109029;28;20043;-74
2022/08/23 09:29:35;;;;;;;5.25;2.55;;;;;;;27.07;35.63;100419.34;5108951;28;19927;-68
2022/08/23 09:32:25;;;;;;;6.50;3.28;;;;;;;27.00;35.85;100437.38;5109205;27;20071;-72
2022/08/23 09:35:03;;;;;;;4.78;2.40;;;;;;;26.94;36.70;100429.91;5111045;27;20128;-71
2022/08/23 09:37:32;;;;;;;4.78;2.90;;;;;;;26.97;36.15;100426.84;5109636;27;20086;-70
2022/08/23 09:40:19;;;;;;;4.18;2.33;;;;;;;27.01;35.62;100426.31;5113007;27;20075;-71
2022/08/23 09:43:03;;;;;;;4.50;2.42;;;;;;;26.97;35.87;100424.13;5108748;28;20122;-72
2022/08/23 09:45:35;;;;;;;3.92;2.78;;;;;;;27.01;36.38;100417.31;5118810;28;20047;-73
2022/08/23 09:48:04;;;;;;;4.43;2.65;;;;;;;27.12;35.41;100423.19;5111385;28;20085;-72
2022/08/23 09:50:48;;;;;;;4.22;2.47;;;;;;;27.19;35.51;100418.75;5102750;27;20125;-74
2022/08/23 09:53:25;;;;;;;5.00;2.40;;;;;;;27.28;35.04;100413.25;5114270;27;20063;-72
2022/08/23 09:55:56;;;;;;;3.75;2.45;;;;;;;27.44;35.13;100422.16;5107952;28;20056;-69
2022/08/23 09:58:35;;;;;;;4.75;2.60;;;;;;;27.46;35.16;100417.38;5110898;28;20097;-73
2022/08/23 10:01:17;;;;;;;8.68;2.90;;;;;;;27.35;35.46;100411.53;5110407;27;20075;-73
2022/08/23 10:03:46;;;;;;;4.68;2.40;;;;;;;27.23;35.10;100402.94;5100001;27;20555;-70
2022/08/23 10:06:29;;;;;;;5.32;2.60;;;;;;;27.16;35.44;100412.81;5111455;27;20078;-70
2022/08/23 10:09:03;;;;;;;7.43;2.65;;;;;;;27.18;35.76;100408.91;5107602;28;20054;-72
2022/08/23 10:11:44;;;;;;;4.75;2.80;;;;;;;27.44;35.26;100407.72;5108033;27;20092;-71
2022/08/23 10:14:18;;;;;;;6.32;2.88;;;;;;;27.65;34.96;100409.81;5105083;28;20097;-72
2022/08/23 10:16:54;;;;;;;4.90;2.35;;;;;;;27.78;34.83;100391.00;5105587;27;20052;-71
2022/08/23 10:19:33;;;;;;;4.88;2.42;;;;;;;28.06;34.56;100377.63;5109313;27;20054;-72
2022/08/23 10:22:07;;;;;;;5.15;2.42;;;;;;;28.35;33.89;100394.00;5102590;27;20134;-69
2022/08/23 10:25:03;;;;;;;4.30;2.75;;;;;;;28.35;33.83;100395.91;5114877;27;20062;-71
2022/08/23 10:30:47;;;;;;;3.97;2.65;;;;;;;28.02;34.17;100393.47;5102167;28;20112;-73
2022/08/23 10:33:42;;;;;;;4.72;2.80;;;;;;;28.20;33.53;100385.84;5103619;27;20471;-72
2022/08/23 10:36:18;;;;;;;4.50;2.45;;;;;;;28.20;33.20;100364.06;5107746;27;20108;-71
2022/08/23 10:38:55;;;;;;;3.25;2.70;;;;;;;28.32;33.01;100363.63;5105864;28;20468;-71
2022/08/23 10:41:32;;;;;;;5.72;2.65;;;;;;;28.62;33.37;100387.09;5106542;28;20161;-71
2022/08/23 10:44:11;;;;;;;4.97;2.65;;;;;;;28.82;32.69;100387.34;5101738;28;20039;-70
2022/08/23 10:46:52;;;;;;;5.05;2.80;;;;;;;28.83;32.74;100384.44;5101341;28;20044;-71
2022/08/23 10:49:19;;;;;;;6.15;2.90;;;;;;;28.94;32.51;100380.41;5107955;27;20069;-72
2022/08/23 10:51:49;;;;;;;5.85;3.42;;;;;;;29.11;32.59;100379.13;5105888;27;20051;-71
2022/08/23 10:54:45;;;;;;;4.63;2.80;;;;;;;29.28;31.72;100382.44;5102366;27;20075;-71
2022/08/23 10:57:20;;;;;;;5.22;2.85;;;;;;;29.31;32.03;100366.53;5106519;27;20043;-71
2022/08/23 10:59:49;;;;;;;8.18;2.78;;;;;;;29.48;31.92;100379.97;5107433;28;20075;-73
2022/08/23 11:02:25;;;;;;;3.63;2.60;;;;;;;29.53;31.72;100377.50;5109182;27;20086;-70
2022/08/23 11:05:04;;;;;;;6.30;2.83;;;;;;;29.56;31.07;100372.50;5107242;27;20436;-70
2022/08/23 11:07:40;;;;;;;4.13;2.63;;;;;;;29.40;30.85;100342.75;5100833;28;20098;-70
2022/08/23 11:10:15;;;;;;;4.50;2.65;;;;;;;29.50;31.02;100362.34;5108317;28;20573;-73
2022/08/23 11:13:17;;;;;;;5.18;2.90;;;;;;;29.67;30.38;100373.84;5111416;28;20083;-70
2022/08/23 11:15:59;;;;;;;9.13;3.22;;;;;;;29.72;30.45;100370.53;5119266;28;20040;-71
2022/08/23 11:18:43;;;;;;;4.07;2.80;;;;;;;29.62;30.93;100338.97;5112367;28;20047;-72
2022/08/23 11:21:24;;;;;;;3.70;3.08;;;;;;;29.81;31.12;100355.69;5112444;28;20078;-69
2022/08/23 11:24:15;;;;;;;4.82;2.75;;;;;;;29.92;30.66;100356.00;5125177;27;20048;-72
2022/08/23 11:26:44;;;;;;;2.75;2.55;;;;;;;30.11;30.26;100359.94;5117682;27;20081;-72
2022/08/23 11:29:20;;;;;;;2.70;2.47;;;;;;;30.11;30.04;100327.19;5102702;28;20085;-73
2022/08/23 11:31:49;;;;;;;2.83;2.50;;;;;;;30.22;30.13;100353.91;5105420;28;20059;-72
2022/08/23 11:34:27;;;;;;;2.83;2.63;;;;;;;30.25;29.55;100350.78;5108317;28;20059;-73
2022/08/23 11:37:20;;;;;;;4.38;2.63;;;;;;;30.38;29.81;100360.13;5106232;28;20078;-71
2022/08/23 11:39:56;;;;;;;4.70;3.28;;;;;;;30.46;29.00;100349.03;5104106;28;20074;-72
2022/08/23 11:42:38;;;;;;;4.65;2.80;;;;;;;30.46;29.49;100354.50;5107415;28;20093;-73
2022/08/23 11:45:36;;;;;;;3.70;3.00;;;;;;;30.55;29.02;100353.31;5106807;28;20050;-72
2022/08/23 11:48:14;;;;;;;4.07;2.95;;;;;;;30.44;29.43;100345.66;5100358;28;20310;-73
2022/08/23 11:50:50;;;;;;;5.53;2.65;;;;;;;30.37;29.59;100344.78;5107964;27;20105;-70
2022/08/23 11:53:38;;;;;;;4.43;2.33;;;;;;;30.42;29.74;100343.13;5099356;28;20051;-71
2022/08/23 11:56:29;;;;;;;8.50;3.28;;;;;;;30.57;29.83;100340.28;5097756;28;20120;-73
2022/08/23 11:59:33;;;;;;;6.55;2.70;;;;;;;30.46;29.24;100347.13;5106685;28;20047;-72
2022/08/23 12:02:31;;;;;;;4.32;2.55;;;;;;;30.51;29.49;100350.13;5101441;28;20490;-73